createdAt,value
2017-09-06T06:41:05.184Z,17.20
2017-09-06T06:43:33.641Z,17.00
2017-09-06T06:46:02.134Z,16.80
2017-09-06T06:48:30.603Z,16.70
2017-09-06T06:50:59.079Z,16.70
2017-09-06T06:53:27.534Z,16.70
2017-09-06T06:55:56.011Z,16.70
2017-09-06T06:58:24.506Z,16.80
2017-09-06T07:00:52.955Z,16.70
2017-09-06T07:03:21.479Z,16.70
2017-09-06T07:05:49.935Z,16.80
2017-09-06T07:08:18.472Z,16.70
2017-09-06T07:10:46.919Z,16.70
2017-09-06T07:13:15.398Z,16.80
2017-09-06T07:15:43.988Z,16.80
2017-09-06T07:18:12.443Z,16.90
2017-09-06T07:20:40.943Z,17.10
2017-09-06T07:23:09.411Z,17.50
2017-09-06T07:25:37.915Z,17.70
2017-09-06T07:28:06.422Z,17.70
2017-09-06T07:30:34.891Z,17.90
2017-09-06T07:33:03.362Z,17.80
2017-09-06T07:35:31.816Z,17.80
2017-09-06T07:38:00.295Z,17.80
2017-09-06T07:40:28.743Z,17.90
2017-09-06T07:42:57.196Z,18.00
2017-09-06T07:45:25.671Z,18.10
2017-09-06T07:47:54.179Z,18.20
2017-09-06T07:50:22.658Z,18.30
2017-09-06T07:52:51.119Z,18.30
2017-09-06T07:55:19.615Z,18.40
2017-09-06T07:57:48.063Z,18.30
2017-09-06T08:00:16.620Z,18.40
2017-09-06T08:02:45.091Z,18.40
2017-09-06T08:05:13.559Z,18.40
2017-09-06T08:07:47.555Z,18.30
2017-09-06T08:10:16.031Z,18.30
2017-09-06T08:12:44.511Z,18.40
2017-09-06T08:15:12.998Z,18.60
2017-09-06T08:17:41.459Z,18.70
2017-09-06T08:20:09.911Z,18.80
2017-09-06T08:22:38.400Z,18.80
2017-09-06T08:25:06.871Z,18.80
2017-09-06T08:27:35.367Z,18.70
2017-09-06T08:30:04.583Z,19.00
2017-09-06T08:32:33.147Z,18.90
2017-09-06T08:35:01.619Z,19.10
2017-09-06T08:37:30.080Z,19.30
2017-09-06T08:39:58.551Z,19.30
2017-09-06T08:42:27.216Z,19.50
2017-09-06T08:44:55.703Z,19.70
2017-09-06T08:47:24.168Z,20.00
2017-09-06T08:49:52.683Z,19.70
2017-09-06T08:52:21.206Z,19.50
2017-09-06T08:54:49.671Z,19.30
2017-09-06T08:57:18.156Z,19.30
2017-09-06T08:59:46.628Z,19.30
2017-09-06T09:02:15.103Z,19.40
2017-09-06T09:04:43.636Z,19.50
2017-09-06T09:07:12.096Z,19.60
2017-09-06T09:09:40.567Z,19.60
2017-09-06T09:12:09.094Z,19.60
2017-09-06T09:14:37.657Z,19.60
2017-09-06T09:17:06.111Z,19.60
2017-09-06T09:19:34.592Z,19.70
2017-09-06T09:22:03.147Z,19.90
2017-09-06T09:24:31.616Z,20.00
2017-09-06T09:27:00.076Z,19.90
2017-09-06T09:29:28.567Z,20.00
2017-09-06T09:31:57.038Z,19.80
2017-09-06T09:34:25.508Z,19.70
2017-09-06T09:36:53.637Z,19.90
2017-09-06T09:39:22.111Z,20.00
2017-09-06T09:41:50.585Z,20.00
2017-09-06T09:44:19.201Z,20.10
2017-09-06T09:46:47.707Z,20.20
2017-09-06T09:49:16.251Z,20.20
2017-09-06T09:51:44.736Z,20.40
2017-09-06T09:54:13.269Z,20.00
2017-09-06T09:56:41.836Z,20.20
2017-09-06T09:59:10.292Z,20.20
2017-09-06T10:01:38.791Z,20.10
2017-09-06T10:04:07.263Z,20.00
2017-09-06T10:06:35.729Z,19.70
2017-09-06T10:09:03.325Z,19.80
2017-09-06T10:11:31.824Z,20.10
2017-09-06T10:14:00.303Z,20.20
2017-09-06T10:16:28.776Z,20.40
2017-09-06T10:18:57.248Z,20.40
2017-09-06T10:21:25.392Z,20.60
2017-09-06T10:23:53.853Z,20.80
2017-09-06T10:26:22.324Z,20.90
2017-09-06T10:28:50.787Z,20.60
2017-09-06T10:31:19.251Z,20.30
2017-09-06T10:33:47.727Z,20.40
2017-09-06T10:36:16.211Z,20.50
2017-09-06T10:38:44.715Z,20.60
2017-09-06T10:41:13.947Z,20.30
2017-09-06T10:43:43.198Z,20.10
2017-09-06T10:46:11.690Z,20.00
2017-09-06T10:48:40.154Z,19.90
2017-09-06T10:51:08.619Z,19.60
2017-09-06T10:53:37.076Z,19.50
2017-09-06T10:56:05.601Z,19.40
2017-09-06T10:58:34.074Z,19.50
2017-09-06T11:01:02.559Z,19.60
2017-09-06T11:03:31.016Z,19.70
2017-09-06T11:05:59.503Z,19.70
2017-09-06T11:08:28.005Z,20.10
2017-09-06T11:10:56.456Z,20.30
2017-09-06T11:13:25.367Z,20.50
2017-09-06T11:15:53.828Z,20.30
2017-09-06T11:18:22.308Z,20.40
2017-09-06T11:20:50.767Z,20.40
2017-09-06T11:23:19.228Z,20.60
2017-09-06T11:25:47.725Z,20.80
2017-09-06T11:28:16.203Z,20.80
2017-09-06T11:30:44.683Z,20.30
2017-09-06T11:33:13.164Z,19.90
2017-09-06T11:35:42.310Z,19.60
2017-09-06T11:38:10.772Z,19.10
2017-09-06T11:40:39.240Z,17.80
2017-09-06T11:43:07.775Z,17.20
2017-09-06T11:45:36.223Z,17.00
2017-09-06T11:48:04.719Z,17.00
2017-09-06T11:50:32.988Z,17.10
2017-09-06T11:53:01.486Z,17.10
2017-09-06T11:55:29.947Z,17.30
2017-09-06T11:57:59.197Z,17.80
2017-09-06T12:00:27.660Z,17.80
2017-09-06T12:02:56.116Z,18.30
2017-09-06T12:05:24.623Z,18.50
2017-09-06T12:07:53.206Z,18.40
2017-09-06T12:10:21.492Z,18.70
2017-09-06T12:12:50.792Z,19.20
2017-09-06T12:15:19.327Z,19.10
2017-09-06T12:17:47.791Z,19.30
2017-09-06T12:20:16.250Z,19.00
2017-09-06T12:22:44.810Z,18.60
2017-09-06T12:25:13.454Z,18.40
2017-09-06T12:27:41.929Z,18.40
2017-09-06T12:30:10.383Z,18.60
2017-09-06T12:32:38.856Z,18.90
2017-09-06T12:35:07.329Z,19.10
2017-09-06T12:37:35.809Z,19.40
2017-09-06T12:40:03.923Z,19.50
2017-09-06T12:42:32.396Z,19.90
2017-09-06T12:45:00.851Z,20.00
2017-09-06T12:47:29.306Z,20.10
2017-09-06T12:49:57.767Z,19.90
2017-09-06T12:52:26.223Z,20.00
2017-09-06T12:54:54.724Z,19.60
2017-09-06T12:57:23.303Z,19.60
2017-09-06T12:59:51.756Z,19.70
2017-09-06T13:02:20.226Z,20.10
2017-09-06T13:04:48.679Z,20.10
2017-09-06T13:07:17.946Z,20.40
2017-09-06T13:09:46.408Z,20.40
2017-09-06T13:12:14.873Z,20.70
2017-09-06T13:14:44.095Z,20.20
2017-09-06T13:17:12.599Z,20.20
2017-09-06T13:19:41.063Z,19.70
2017-09-06T13:22:09.535Z,19.60
2017-09-06T13:24:38.013Z,19.60
2017-09-06T13:27:06.477Z,19.40
2017-09-06T13:29:36.051Z,20.00
2017-09-06T13:32:04.540Z,19.90
2017-09-06T13:34:33.276Z,20.40
2017-09-06T13:37:02.007Z,20.60
2017-09-06T13:39:30.729Z,20.50
2017-09-06T13:41:59.465Z,20.20
2017-09-06T13:44:27.965Z,20.30
2017-09-06T13:46:56.723Z,20.80
2017-09-06T13:49:25.188Z,20.70
2017-09-06T13:51:54.042Z,20.40
2017-09-06T13:54:22.772Z,19.90
2017-09-06T13:56:51.535Z,20.10
2017-09-06T13:59:20.256Z,19.90
2017-09-06T14:01:48.840Z,20.40
2017-09-06T14:04:17.613Z,20.50
2017-09-06T14:06:47.798Z,20.50
2017-09-06T14:09:16.634Z,20.40
2017-09-06T14:11:45.382Z,19.90
2017-09-06T14:14:13.851Z,20.20
2017-09-06T14:16:42.365Z,20.00
2017-09-06T14:19:10.849Z,19.60
2017-09-06T14:21:39.306Z,19.90
2017-09-06T14:24:07.941Z,20.50
2017-09-06T14:26:36.984Z,20.60
2017-09-06T14:29:05.720Z,20.80
2017-09-06T14:31:34.314Z,20.10
2017-09-06T14:34:02.767Z,19.50
2017-09-06T14:36:31.528Z,19.50
2017-09-06T14:39:00.065Z,19.30
2017-09-06T14:41:28.547Z,19.30
2017-09-06T14:43:57.307Z,19.10
2017-09-06T14:46:25.788Z,19.10
2017-09-06T14:48:54.515Z,19.40
2017-09-06T14:51:23.290Z,20.10
2017-09-06T14:53:51.920Z,20.00
2017-09-06T14:56:20.383Z,20.00
2017-09-06T14:58:49.146Z,20.10
2017-09-06T15:01:17.431Z,20.20
2017-09-06T15:03:46.205Z,20.00
2017-09-06T15:06:14.976Z,20.10
2017-09-06T15:08:43.492Z,19.60
2017-09-06T15:11:12.223Z,19.10
2017-09-06T15:13:40.694Z,18.80
2017-09-06T15:16:10.177Z,19.00
2017-09-06T15:18:38.643Z,19.00
2017-09-06T15:21:07.142Z,19.10
2017-09-06T15:23:35.590Z,19.20
2017-09-06T15:26:04.359Z,19.20
2017-09-06T15:28:33.047Z,19.40
2017-09-06T15:31:01.608Z,19.60
2017-09-06T15:33:30.152Z,19.70
2017-09-06T15:35:58.647Z,20.00
2017-09-06T15:38:27.379Z,20.20
2017-09-06T15:40:55.947Z,20.10
2017-09-06T15:43:24.427Z,19.40
2017-09-06T15:45:53.164Z,19.30
2017-09-06T15:48:22.704Z,18.90
2017-09-06T15:50:51.720Z,18.80
2017-09-06T15:53:20.207Z,19.00
2017-09-06T15:55:49.012Z,19.20
2017-09-06T15:58:17.779Z,19.10
2017-09-06T16:00:46.528Z,19.10
2017-09-06T16:03:14.989Z,18.90
2017-09-06T16:05:44.244Z,19.10
2017-09-06T16:08:12.716Z,19.10
2017-09-06T16:10:41.180Z,19.10
2017-09-06T16:13:09.658Z,19.10
2017-09-06T16:15:38.363Z,19.00
2017-09-06T16:18:07.112Z,18.90
2017-09-06T16:20:35.992Z,18.70
2017-09-06T16:23:05.257Z,18.30
2017-09-06T16:25:34.000Z,18.20
2017-09-06T16:28:03.248Z,18.00
2017-09-06T16:30:31.711Z,18.00
2017-09-06T16:33:00.456Z,18.00
2017-09-06T16:35:29.251Z,18.00
2017-09-06T16:37:57.966Z,18.00
2017-09-06T16:40:26.436Z,18.10
2017-09-06T16:42:54.906Z,18.00
2017-09-06T16:45:24.162Z,18.00
2017-09-06T16:47:52.896Z,17.90
2017-09-06T16:50:21.444Z,18.10
2017-09-06T16:52:50.238Z,17.80
2017-09-06T16:55:18.989Z,17.80
2017-09-06T16:57:47.422Z,17.80
2017-09-06T17:00:16.139Z,17.40
2017-09-06T17:02:44.608Z,17.30
2017-09-06T17:05:13.212Z,17.20
2017-09-06T17:07:41.776Z,17.20
